sensor_id;sensor_type;location;lat;lon;timestamp;temperature;humidity
83729;DHT22;73707;56.480;-2.840;2024-03-08T00:01:10;8.20;99.90
83729;DHT22;73707;56.480;-2.840;2024-03-08T00:03:35;8.20;99.90
83729;DHT22;73707;56.480;-2.840;2024-03-08T00:06:01;8.20;99.90
83729;DHT22;73707;56.480;-2.840;2024-03-08T00:08:27;8.30;99.90
83729;DHT22;73707;56.480;-2.840;2024-03-08T00:10:53;8.30;99.90
83729;DHT22;73707;56.480;-2.840;2024-03-08T00:13:19;8.40;99.90
83729;DHT22;73707;56.480;-2.840;2024-03-08T00:15:45;8.40;99.90
83729;DHT22;73707;56.480;-2.840;2024-03-08T00:18:11;8.40;99.90
83729;DHT22;73707;56.480;-2.840;2024-03-08T00:20:37;8.50;99.90
83729;DHT22;73707;56.480;-2.840;2024-03-08T00:23:02;8.50;99.90
83729;DHT22;73707;56.480;-2.840;2024-03-08T00:25:28;8.40;99.90
83729;DHT22;73707;56.480;-2.840;2024-03-08T00:27:54;8.40;99.90
83729;DHT22;73707;56.480;-2.840;2024-03-08T00:30:23;8.30;99.90
83729;DHT22;73707;56.480;-2.840;2024-03-08T00:32:49;8.20;99.90
83729;DHT22;73707;56.480;-2.840;2024-03-08T00:35:15;8.20;99.90
83729;DHT22;73707;56.480;-2.840;2024-03-08T00:37:41;8.10;99.90
83729;DHT22;73707;56.480;-2.840;2024-03-08T00:40:12;8.10;99.90
83729;DHT22;73707;56.480;-2.840;2024-03-08T00:42:38;8.10;99.90
83729;DHT22;73707;56.480;-2.840;2024-03-08T00:45:05;8.10;99.90
83729;DHT22;73707;56.480;-2.840;2024-03-08T00:47:31;8.10;99.90
83729;DHT22;73707;56.480;-2.840;2024-03-08T00:49:57;8.10;99.90
83729;DHT22;73707;56.480;-2.840;2024-03-08T00:52:23;8.10;99.90
83729;DHT22;73707;56.480;-2.840;2024-03-08T00:54:52;8.20;99.90
83729;DHT22;73707;56.480;-2.840;2024-03-08T00:57:17;8.20;99.90
83729;DHT22;73707;56.480;-2.840;2024-03-08T00:59:43;8.30;99.90
83729;DHT22;73707;56.480;-2.840;2024-03-08T01:02:09;8.30;99.90
83729;DHT22;73707;56.480;-2.840;2024-03-08T01:04:35;8.40;99.90
83729;DHT22;73707;56.480;-2.840;2024-03-08T01:07:00;8.40;99.90
83729;DHT22;73707;56.480;-2.840;2024-03-08T01:09:27;8.40;99.90
83729;DHT22;73707;56.480;-2.840;2024-03-08T01:11:56;8.40;99.90
83729;DHT22;73707;56.480;-2.840;2024-03-08T01:14:22;8.30;99.90
83729;DHT22;73707;56.480;-2.840;2024-03-08T01:16:49;8.30;99.90
83729;DHT22;73707;56.480;-2.840;2024-03-08T01:19:15;8.20;99.90
83729;DHT22;73707;56.480;-2.840;2024-03-08T01:21:41;8.10;99.90
83729;DHT22;73707;56.480;-2.840;2024-03-08T01:24:07;8.10;99.90
83729;DHT22;73707;56.480;-2.840;2024-03-08T01:26:33;8.00;99.90
83729;DHT22;73707;56.480;-2.840;2024-03-08T01:29:02;7.90;99.90
83729;DHT22;73707;56.480;-2.840;2024-03-08T01:31:32;7.90;99.90
83729;DHT22;73707;56.480;-2.840;2024-03-08T01:33:58;7.90;99.90
83729;DHT22;73707;56.480;-2.840;2024-03-08T01:36:24;7.90;99.90
83729;DHT22;73707;56.480;-2.840;2024-03-08T01:38:50;7.90;99.90
83729;DHT22;73707;56.480;-2.840;2024-03-08T01:41:16;7.80;99.90
83729;DHT22;73707;56.480;-2.840;2024-03-08T01:43:43;7.80;99.90
83729;DHT22;73707;56.480;-2.840;2024-03-08T01:46:09;7.70;99.90
83729;DHT22;73707;56.480;-2.840;2024-03-08T01:48:37;7.70;99.90
83729;DHT22;73707;56.480;-2.840;2024-03-08T01:51:03;7.70;99.90
83729;DHT22;73707;56.480;-2.840;2024-03-08T01:53:30;7.70;99.90
83729;DHT22;73707;56.480;-2.840;2024-03-08T01:55:57;7.70;99.90
83729;DHT22;73707;56.480;-2.840;2024-03-08T01:58:23;7.80;99.90
83729;DHT22;73707;56.480;-2.840;2024-03-08T02:00:50;7.80;99.90
83729;DHT22;73707;56.480;-2.840;2024-03-08T02:03:16;7.80;99.90
83729;DHT22;73707;56.480;-2.840;2024-03-08T02:05:42;7.80;99.90
83729;DHT22;73707;56.480;-2.840;2024-03-08T02:08:09;7.80;99.90
83729;DHT22;73707;56.480;-2.840;2024-03-08T02:10:39;7.70;99.90
83729;DHT22;73707;56.480;-2.840;2024-03-08T02:13:05;7.70;99.90
83729;DHT22;73707;56.480;-2.840;2024-03-08T02:15:59;7.70;99.90
83729;DHT22;73707;56.480;-2.840;2024-03-08T02:18:26;7.70;99.90
83729;DHT22;73707;56.480;-2.840;2024-03-08T02:21:03;7.80;99.90
83729;DHT22;73707;56.480;-2.840;2024-03-08T02:23:29;7.70;99.90
83729;DHT22;73707;56.480;-2.840;2024-03-08T02:25:56;7.70;99.90
83729;DHT22;73707;56.480;-2.840;2024-03-08T02:28:23;7.70;99.90
83729;DHT22;73707;56.480;-2.840;2024-03-08T02:30:51;7.70;99.90
83729;DHT22;73707;56.480;-2.840;2024-03-08T02:33:17;7.70;99.90
83729;DHT22;73707;56.480;-2.840;2024-03-08T02:35:47;7.70;99.90
83729;DHT22;73707;56.480;-2.840;2024-03-08T02:38:23;7.70;99.90
83729;DHT22;73707;56.480;-2.840;2024-03-08T02:40:50;7.70;99.90
83729;DHT22;73707;56.480;-2.840;2024-03-08T02:43:17;7.80;99.90
83729;DHT22;73707;56.480;-2.840;2024-03-08T02:45:44;7.80;99.90
83729;DHT22;73707;56.480;-2.840;2024-03-08T02:48:11;7.80;99.90
83729;DHT22;73707;56.480;-2.840;2024-03-08T02:50:37;7.70;99.90
83729;DHT22;73707;56.480;-2.840;2024-03-08T02:53:05;7.70;99.90
83729;DHT22;73707;56.480;-2.840;2024-03-08T02:55:31;7.70;99.90
83729;DHT22;73707;56.480;-2.840;2024-03-08T02:57:59;7.60;99.90
83729;DHT22;73707;56.480;-2.840;2024-03-08T03:00:24;7.60;99.90
83729;DHT22;73707;56.480;-2.840;2024-03-08T03:02:50;7.60;99.90
83729;DHT22;73707;56.480;-2.840;2024-03-08T03:05:22;7.60;99.90
83729;DHT22;73707;56.480;-2.840;2024-03-08T03:07:49;7.50;99.90
83729;DHT22;73707;56.480;-2.840;2024-03-08T03:10:16;7.50;99.90
83729;DHT22;73707;56.480;-2.840;2024-03-08T03:12:43;7.50;99.90
83729;DHT22;73707;56.480;-2.840;2024-03-08T03:15:10;7.50;99.90
83729;DHT22;73707;56.480;-2.840;2024-03-08T03:17:36;7.50;99.90
83729;DHT22;73707;56.480;-2.840;2024-03-08T03:20:01;7.40;99.90
83729;DHT22;73707;56.480;-2.840;2024-03-08T03:22:34;7.30;99.90
83729;DHT22;73707;56.480;-2.840;2024-03-08T03:25:00;7.20;99.90
83729;DHT22;73707;56.480;-2.840;2024-03-08T03:27:26;7.20;99.90
83729;DHT22;73707;56.480;-2.840;2024-03-08T03:29:51;7.10;99.90
83729;DHT22;73707;56.480;-2.840;2024-03-08T03:32:17;7.10;99.90
83729;DHT22;73707;56.480;-2.840;2024-03-08T03:34:44;7.10;99.90
83729;DHT22;73707;56.480;-2.840;2024-03-08T03:37:10;7.10;99.90
83729;DHT22;73707;56.480;-2.840;2024-03-08T03:39:39;7.10;99.90
83729;DHT22;73707;56.480;-2.840;2024-03-08T03:42:15;7.20;99.90
83729;DHT22;73707;56.480;-2.840;2024-03-08T03:44:45;7.10;99.90
83729;DHT22;73707;56.480;-2.840;2024-03-08T03:47:11;7.10;99.90
83729;DHT22;73707;56.480;-2.840;2024-03-08T03:49:37;7.10;99.90
83729;DHT22;73707;56.480;-2.840;2024-03-08T03:52:02;7.10;99.90
83729;DHT22;73707;56.480;-2.840;2024-03-08T03:54:30;7.10;99.90
83729;DHT22;73707;56.480;-2.840;2024-03-08T03:56:56;7.00;99.90
83729;DHT22;73707;56.480;-2.840;2024-03-08T03:59:21;7.00;99.90
83729;DHT22;73707;56.480;-2.840;2024-03-08T04:01:47;7.00;99.90
83729;DHT22;73707;56.480;-2.840;2024-03-08T04:04:15;7.00;99.90
83729;DHT22;73707;56.480;-2.840;2024-03-08T04:06:40;7.00;99.90
83729;DHT22;73707;56.480;-2.840;2024-03-08T04:09:07;7.00;99.90
83729;DHT22;73707;56.480;-2.840;2024-03-08T04:11:33;7.00;99.90
83729;DHT22;73707;56.480;-2.840;2024-03-08T04:13:58;7.00;99.90
83729;DHT22;73707;56.480;-2.840;2024-03-08T04:16:24;7.00;99.90
83729;DHT22;73707;56.480;-2.840;2024-03-08T04:18:51;6.90;99.90
83729;DHT22;73707;56.480;-2.840;2024-03-08T04:21:17;6.90;99.90
83729;DHT22;73707;56.480;-2.840;2024-03-08T04:23:45;6.80;99.90
83729;DHT22;73707;56.480;-2.840;2024-03-08T04:26:11;6.80;99.90
83729;DHT22;73707;56.480;-2.840;2024-03-08T04:28:37;6.80;99.90
83729;DHT22;73707;56.480;-2.840;2024-03-08T04:31:03;6.80;99.90
83729;DHT22;73707;56.480;-2.840;2024-03-08T04:33:29;6.80;99.90
83729;DHT22;73707;56.480;-2.840;2024-03-08T04:35:55;6.80;99.90
83729;DHT22;73707;56.480;-2.840;2024-03-08T04:38:21;6.80;99.90
83729;DHT22;73707;56.480;-2.840;2024-03-08T04:40:48;6.80;99.90
83729;DHT22;73707;56.480;-2.840;2024-03-08T04:43:14;6.90;99.90
83729;DHT22;73707;56.480;-2.840;2024-03-08T04:45:40;6.90;99.90
83729;DHT22;73707;56.480;-2.840;2024-03-08T04:48:09;7.00;99.90
83729;DHT22;73707;56.480;-2.840;2024-03-08T04:50:35;7.00;99.90
83729;DHT22;73707;56.480;-2.840;2024-03-08T04:53:00;7.10;99.90
83729;DHT22;73707;56.480;-2.840;2024-03-08T04:55:26;7.10;99.90
83729;DHT22;73707;56.480;-2.840;2024-03-08T04:57:52;7.10;99.90
83729;DHT22;73707;56.480;-2.840;2024-03-08T05:00:18;7.20;99.90
83729;DHT22;73707;56.480;-2.840;2024-03-08T05:02:44;7.30;99.90
83729;DHT22;73707;56.480;-2.840;2024-03-08T05:05:10;7.30;99.90
83729;DHT22;73707;56.480;-2.840;2024-03-08T05:07:39;7.40;99.90
83729;DHT22;73707;56.480;-2.840;2024-03-08T05:10:06;7.40;99.90
83729;DHT22;73707;56.480;-2.840;2024-03-08T05:12:33;7.40;99.90
83729;DHT22;73707;56.480;-2.840;2024-03-08T05:14:58;7.40;99.90
83729;DHT22;73707;56.480;-2.840;2024-03-08T05:17:24;7.40;99.90
83729;DHT22;73707;56.480;-2.840;2024-03-08T05:19:50;7.50;99.90
83729;DHT22;73707;56.480;-2.840;2024-03-08T05:22:16;7.50;99.90
83729;DHT22;73707;56.480;-2.840;2024-03-08T05:24:43;7.40;99.90
83729;DHT22;73707;56.480;-2.840;2024-03-08T05:27:08;7.50;99.90
83729;DHT22;73707;56.480;-2.840;2024-03-08T05:29:34;7.50;99.90
83729;DHT22;73707;56.480;-2.840;2024-03-08T05:32:00;7.50;99.90
83729;DHT22;73707;56.480;-2.840;2024-03-08T05:34:26;7.50;99.90
83729;DHT22;73707;56.480;-2.840;2024-03-08T05:36:54;7.40;99.90
83729;DHT22;73707;56.480;-2.840;2024-03-08T05:39:20;7.40;99.90
83729;DHT22;73707;56.480;-2.840;2024-03-08T05:41:46;7.50;99.90
83729;DHT22;73707;56.480;-2.840;2024-03-08T05:44:12;7.50;99.90
83729;DHT22;73707;56.480;-2.840;2024-03-08T05:46:39;7.50;99.90
83729;DHT22;73707;56.480;-2.840;2024-03-08T05:49:05;7.50;99.90
83729;DHT22;73707;56.480;-2.840;2024-03-08T05:51:35;7.40;99.90
83729;DHT22;73707;56.480;-2.840;2024-03-08T05:54:05;7.40;99.90
83729;DHT22;73707;56.480;-2.840;2024-03-08T05:56:34;7.30;99.90
83729;DHT22;73707;56.480;-2.840;2024-03-08T05:59:00;7.30;99.90
83729;DHT22;73707;56.480;-2.840;2024-03-08T06:01:26;7.30;99.90
83729;DHT22;73707;56.480;-2.840;2024-03-08T06:03:53;7.30;99.90
83729;DHT22;73707;56.480;-2.840;2024-03-08T06:06:21;7.30;99.90
83729;DHT22;73707;56.480;-2.840;2024-03-08T06:08:48;7.40;99.90
83729;DHT22;73707;56.480;-2.840;2024-03-08T06:11:15;7.40;99.90
83729;DHT22;73707;56.480;-2.840;2024-03-08T06:13:40;7.30;99.90
83729;DHT22;73707;56.480;-2.840;2024-03-08T06:16:06;7.30;99.90
83729;DHT22;73707;56.480;-2.840;2024-03-08T06:18:34;7.30;99.90
83729;DHT22;73707;56.480;-2.840;2024-03-08T06:21:05;7.30;99.90
83729;DHT22;73707;56.480;-2.840;2024-03-08T06:23:34;7.30;99.90
83729;DHT22;73707;56.480;-2.840;2024-03-08T06:26:09;7.30;99.90
83729;DHT22;73707;56.480;-2.840;2024-03-08T06:28:35;7.30;99.90
83729;DHT22;73707;56.480;-2.840;2024-03-08T06:31:01;7.30;99.90
83729;DHT22;73707;56.480;-2.840;2024-03-08T06:33:28;7.30;99.90
83729;DHT22;73707;56.480;-2.840;2024-03-08T06:35:54;7.30;99.90
83729;DHT22;73707;56.480;-2.840;2024-03-08T06:38:25;7.30;99.90
83729;DHT22;73707;56.480;-2.840;2024-03-08T06:40:51;7.20;99.90
83729;DHT22;73707;56.480;-2.840;2024-03-08T06:43:18;7.10;99.90
83729;DHT22;73707;56.480;-2.840;2024-03-08T06:45:44;7.10;99.90
83729;DHT22;73707;56.480;-2.840;2024-03-08T06:48:18;7.10;99.90
83729;DHT22;73707;56.480;-2.840;2024-03-08T06:50:44;7.10;99.90
83729;DHT22;73707;56.480;-2.840;2024-03-08T06:53:14;7.10;99.90
83729;DHT22;73707;56.480;-2.840;2024-03-08T06:55:40;7.10;99.90
83729;DHT22;73707;56.480;-2.840;2024-03-08T06:58:06;7.10;99.90
83729;DHT22;73707;56.480;-2.840;2024-03-08T07:00:36;7.00;99.90
83729;DHT22;73707;56.480;-2.840;2024-03-08T07:03:02;7.10;99.90
83729;DHT22;73707;56.480;-2.840;2024-03-08T07:05:31;7.10;99.90
83729;DHT22;73707;56.480;-2.840;2024-03-08T07:07:58;7.10;99.90
83729;DHT22;73707;56.480;-2.840;2024-03-08T07:10:24;7.10;99.90
83729;DHT22;73707;56.480;-2.840;2024-03-08T07:12:54;7.10;99.90
83729;DHT22;73707;56.480;-2.840;2024-03-08T07:15:20;7.20;99.90
83729;DHT22;73707;56.480;-2.840;2024-03-08T07:17:46;7.20;99.90
83729;DHT22;73707;56.480;-2.840;2024-03-08T07:20:13;7.20;99.90
83729;DHT22;73707;56.480;-2.840;2024-03-08T07:22:39;7.20;99.90
83729;DHT22;73707;56.480;-2.840;2024-03-08T07:25:05;7.20;99.90
83729;DHT22;73707;56.480;-2.840;2024-03-08T07:27:51;7.20;99.90
83729;DHT22;73707;56.480;-2.840;2024-03-08T07:30:17;7.10;99.90
83729;DHT22;73707;56.480;-2.840;2024-03-08T07:33:03;7.10;99.90
83729;DHT22;73707;56.480;-2.840;2024-03-08T07:35:29;7.20;99.90
83729;DHT22;73707;56.480;-2.840;2024-03-08T07:37:56;7.20;99.90
83729;DHT22;73707;56.480;-2.840;2024-03-08T07:40:23;7.20;99.90
83729;DHT22;73707;56.480;-2.840;2024-03-08T07:42:49;7.20;99.90
83729;DHT22;73707;56.480;-2.840;2024-03-08T07:45:18;7.20;99.90
83729;DHT22;73707;56.480;-2.840;2024-03-08T07:47:43;7.20;99.90
83729;DHT22;73707;56.480;-2.840;2024-03-08T07:50:09;7.20;99.90
83729;DHT22;73707;56.480;-2.840;2024-03-08T07:52:35;7.20;99.90
83729;DHT22;73707;56.480;-2.840;2024-03-08T07:55:02;7.20;99.90
83729;DHT22;73707;56.480;-2.840;2024-03-08T07:57:29;7.30;99.90
83729;DHT22;73707;56.480;-2.840;2024-03-08T07:59:55;7.30;99.90
83729;DHT22;73707;56.480;-2.840;2024-03-08T08:02:21;7.30;99.90
83729;DHT22;73707;56.480;-2.840;2024-03-08T08:04:46;7.30;99.90
83729;DHT22;73707;56.480;-2.840;2024-03-08T08:07:12;7.40;99.90
83729;DHT22;73707;56.480;-2.840;2024-03-08T08:09:40;7.40;99.90
83729;DHT22;73707;56.480;-2.840;2024-03-08T08:12:08;7.40;99.90
83729;DHT22;73707;56.480;-2.840;2024-03-08T08:14:37;7.50;99.90
83729;DHT22;73707;56.480;-2.840;2024-03-08T08:17:03;7.50;99.90
83729;DHT22;73707;56.480;-2.840;2024-03-08T08:19:29;7.50;99.90
83729;DHT22;73707;56.480;-2.840;2024-03-08T08:21:55;7.50;99.90
83729;DHT22;73707;56.480;-2.840;2024-03-08T08:24:21;7.50;99.90
83729;DHT22;73707;56.480;-2.840;2024-03-08T08:26:47;7.50;99.90
83729;DHT22;73707;56.480;-2.840;2024-03-08T08:29:13;7.40;99.90
83729;DHT22;73707;56.480;-2.840;2024-03-08T08:31:39;7.50;99.90
83729;DHT22;73707;56.480;-2.840;2024-03-08T08:34:04;7.50;99.90
83729;DHT22;73707;56.480;-2.840;2024-03-08T08:36:31;7.50;99.90
83729;DHT22;73707;56.480;-2.840;2024-03-08T08:38:57;7.50;99.90
83729;DHT22;73707;56.480;-2.840;2024-03-08T08:41:24;7.50;99.90
83729;DHT22;73707;56.480;-2.840;2024-03-08T08:43:50;7.50;99.90
83729;DHT22;73707;56.480;-2.840;2024-03-08T08:46:19;7.50;99.90
83729;DHT22;73707;56.480;-2.840;2024-03-08T08:48:46;7.50;99.90
83729;DHT22;73707;56.480;-2.840;2024-03-08T08:51:12;7.50;99.90
83729;DHT22;73707;56.480;-2.840;2024-03-08T08:53:39;7.50;99.90
83729;DHT22;73707;56.480;-2.840;2024-03-08T08:56:11;7.50;99.90
83729;DHT22;73707;56.480;-2.840;2024-03-08T08:58:40;7.60;99.90
83729;DHT22;73707;56.480;-2.840;2024-03-08T09:01:09;7.60;99.90
83729;DHT22;73707;56.480;-2.840;2024-03-08T09:03:37;7.60;99.90
83729;DHT22;73707;56.480;-2.840;2024-03-08T09:06:08;7.60;99.90
83729;DHT22;73707;56.480;-2.840;2024-03-08T09:08:37;7.60;99.90
83729;DHT22;73707;56.480;-2.840;2024-03-08T09:11:06;7.60;99.90
83729;DHT22;73707;56.480;-2.840;2024-03-08T09:13:32;7.60;99.90
83729;DHT22;73707;56.480;-2.840;2024-03-08T09:15:59;7.60;99.90
83729;DHT22;73707;56.480;-2.840;2024-03-08T09:18:25;7.60;99.80
83729;DHT22;73707;56.480;-2.840;2024-03-08T09:20:51;7.70;99.90
83729;DHT22;73707;56.480;-2.840;2024-03-08T09:23:22;7.70;99.90
83729;DHT22;73707;56.480;-2.840;2024-03-08T09:25:48;7.70;99.80
83729;DHT22;73707;56.480;-2.840;2024-03-08T09:28:14;7.70;99.90
83729;DHT22;73707;56.480;-2.840;2024-03-08T09:30:39;7.70;99.90
83729;DHT22;73707;56.480;-2.840;2024-03-08T09:33:06;7.70;99.70
83729;DHT22;73707;56.480;-2.840;2024-03-08T09:35:32;7.70;99.50
83729;DHT22;73707;56.480;-2.840;2024-03-08T09:37:58;7.70;99.90
83729;DHT22;73707;56.480;-2.840;2024-03-08T09:40:24;7.80;99.90
83729;DHT22;73707;56.480;-2.840;2024-03-08T09:42:51;7.90;99.90
83729;DHT22;73707;56.480;-2.840;2024-03-08T09:45:20;7.90;99.90
83729;DHT22;73707;56.480;-2.840;2024-03-08T09:47:47;7.90;99.70
83729;DHT22;73707;56.480;-2.840;2024-03-08T09:50:14;8.00;99.90
83729;DHT22;73707;56.480;-2.840;2024-03-08T09:52:47;8.00;99.80
83729;DHT22;73707;56.480;-2.840;2024-03-08T09:55:14;8.00;99.90
83729;DHT22;73707;56.480;-2.840;2024-03-08T09:57:43;8.00;99.90
83729;DHT22;73707;56.480;-2.840;2024-03-08T10:00:28;8.00;99.80
83729;DHT22;73707;56.480;-2.840;2024-03-08T10:02:53;8.10;99.90
83729;DHT22;73707;56.480;-2.840;2024-03-08T10:05:19;8.10;99.70
83729;DHT22;73707;56.480;-2.840;2024-03-08T10:07:45;8.00;99.70
83729;DHT22;73707;56.480;-2.840;2024-03-08T10:10:11;8.10;99.70
83729;DHT22;73707;56.480;-2.840;2024-03-08T10:12:38;8.10;99.40
83729;DHT22;73707;56.480;-2.840;2024-03-08T10:15:07;8.00;99.30
83729;DHT22;73707;56.480;-2.840;2024-03-08T10:17:34;8.10;99.50
83729;DHT22;73707;56.480;-2.840;2024-03-08T10:20:00;8.10;99.20
83729;DHT22;73707;56.480;-2.840;2024-03-08T10:22:26;8.10;99.40
83729;DHT22;73707;56.480;-2.840;2024-03-08T10:24:52;8.10;99.20
83729;DHT22;73707;56.480;-2.840;2024-03-08T10:27:18;8.10;99.00
83729;DHT22;73707;56.480;-2.840;2024-03-08T10:29:47;8.10;98.80
83729;DHT22;73707;56.480;-2.840;2024-03-08T10:32:13;8.10;98.70
83729;DHT22;73707;56.480;-2.840;2024-03-08T10:34:39;8.10;98.70
83729;DHT22;73707;56.480;-2.840;2024-03-08T10:37:07;8.10;98.50
83729;DHT22;73707;56.480;-2.840;2024-03-08T10:39:39;8.10;98.20
83729;DHT22;73707;56.480;-2.840;2024-03-08T10:42:12;8.10;98.50
83729;DHT22;73707;56.480;-2.840;2024-03-08T10:44:58;8.10;98.50
83729;DHT22;73707;56.480;-2.840;2024-03-08T10:47:30;8.10;98.50
83729;DHT22;73707;56.480;-2.840;2024-03-08T10:52:33;8.10;98.50
83729;DHT22;73707;56.480;-2.840;2024-03-08T10:55:01;8.20;98.60
83729;DHT22;73707;56.480;-2.840;2024-03-08T10:57:27;8.20;98.50
83729;DHT22;73707;56.480;-2.840;2024-03-08T10:59:54;8.20;98.60
83729;DHT22;73707;56.480;-2.840;2024-03-08T11:02:20;8.20;98.60
83729;DHT22;73707;56.480;-2.840;2024-03-08T11:04:50;8.20;98.80
83729;DHT22;73707;56.480;-2.840;2024-03-08T11:07:16;8.20;98.80
83729;DHT22;73707;56.480;-2.840;2024-03-08T11:09:44;8.20;98.70
83729;DHT22;73707;56.480;-2.840;2024-03-08T11:12:26;8.20;98.50
83729;DHT22;73707;56.480;-2.840;2024-03-08T11:14:56;8.30;98.60
83729;DHT22;73707;56.480;-2.840;2024-03-08T11:19:58;8.30;98.40
83729;DHT22;73707;56.480;-2.840;2024-03-08T11:22:28;8.30;98.40
83729;DHT22;73707;56.480;-2.840;2024-03-08T11:25:33;8.40;98.30
83729;DHT22;73707;56.480;-2.840;2024-03-08T11:31:31;8.40;98.40
83729;DHT22;73707;56.480;-2.840;2024-03-08T11:33:35;8.50;98.50
83729;DHT22;73707;56.480;-2.840;2024-03-08T11:38:46;8.50;98.10
83729;DHT22;73707;56.480;-2.840;2024-03-08T11:41:17;8.60;98.30
83729;DHT22;73707;56.480;-2.840;2024-03-08T11:43:45;8.70;98.20
83729;DHT22;73707;56.480;-2.840;2024-03-08T11:46:12;8.70;98.30
83729;DHT22;73707;56.480;-2.840;2024-03-08T11:48:39;8.70;98.20
83729;DHT22;73707;56.480;-2.840;2024-03-08T11:51:10;8.70;98.30
83729;DHT22;73707;56.480;-2.840;2024-03-08T11:53:38;8.70;98.00
83729;DHT22;73707;56.480;-2.840;2024-03-08T11:56:08;8.80;98.10
83729;DHT22;73707;56.480;-2.840;2024-03-08T11:58:34;8.80;98.30
83729;DHT22;73707;56.480;-2.840;2024-03-08T12:01:09;8.90;98.10
83729;DHT22;73707;56.480;-2.840;2024-03-08T12:03:41;8.90;97.80
83729;DHT22;73707;56.480;-2.840;2024-03-08T12:06:10;8.90;97.90
83729;DHT22;73707;56.480;-2.840;2024-03-08T12:08:36;8.90;98.10
83729;DHT22;73707;56.480;-2.840;2024-03-08T12:11:04;8.90;98.10
83729;DHT22;73707;56.480;-2.840;2024-03-08T12:13:32;9.00;98.00
83729;DHT22;73707;56.480;-2.840;2024-03-08T12:15:58;9.10;98.20
83729;DHT22;73707;56.480;-2.840;2024-03-08T12:18:28;9.10;97.90
83729;DHT22;73707;56.480;-2.840;2024-03-08T12:21:10;9.20;97.80
83729;DHT22;73707;56.480;-2.840;2024-03-08T12:23:38;9.20;97.80
83729;DHT22;73707;56.480;-2.840;2024-03-08T12:26:16;9.30;97.80
83729;DHT22;73707;56.480;-2.840;2024-03-08T12:28:43;9.30;97.70
83729;DHT22;73707;56.480;-2.840;2024-03-08T12:31:13;9.40;97.60
83729;DHT22;73707;56.480;-2.840;2024-03-08T12:33:51;9.40;97.40
83729;DHT22;73707;56.480;-2.840;2024-03-08T12:36:18;9.40;97.40
83729;DHT22;73707;56.480;-2.840;2024-03-08T12:38:46;9.50;97.40
83729;DHT22;73707;56.480;-2.840;2024-03-08T12:41:18;9.50;97.40
83729;DHT22;73707;56.480;-2.840;2024-03-08T12:43:48;9.50;97.30
83729;DHT22;73707;56.480;-2.840;2024-03-08T12:46:20;9.50;96.90
83729;DHT22;73707;56.480;-2.840;2024-03-08T12:48:48;9.50;97.00
83729;DHT22;73707;56.480;-2.840;2024-03-08T12:51:15;9.50;97.60
83729;DHT22;73707;56.480;-2.840;2024-03-08T12:53:44;9.60;97.10
83729;DHT22;73707;56.480;-2.840;2024-03-08T12:56:16;9.60;97.10
83729;DHT22;73707;56.480;-2.840;2024-03-08T12:58:44;9.70;97.40
83729;DHT22;73707;56.480;-2.840;2024-03-08T13:01:10;9.70;97.10
83729;DHT22;73707;56.480;-2.840;2024-03-08T13:03:37;9.70;97.20
83729;DHT22;73707;56.480;-2.840;2024-03-08T13:06:04;9.70;97.40
83729;DHT22;73707;56.480;-2.840;2024-03-08T13:08:34;9.80;97.30
83729;DHT22;73707;56.480;-2.840;2024-03-08T13:11:01;9.80;97.20
83729;DHT22;73707;56.480;-2.840;2024-03-08T13:13:28;9.80;97.40
83729;DHT22;73707;56.480;-2.840;2024-03-08T13:15:54;9.90;97.40
83729;DHT22;73707;56.480;-2.840;2024-03-08T13:18:22;9.90;97.10
83729;DHT22;73707;56.480;-2.840;2024-03-08T13:20:48;9.80;97.40
83729;DHT22;73707;56.480;-2.840;2024-03-08T13:23:17;9.80;97.40
83729;DHT22;73707;56.480;-2.840;2024-03-08T13:25:43;9.80;97.50
83729;DHT22;73707;56.480;-2.840;2024-03-08T13:28:09;9.80;97.60
83729;DHT22;73707;56.480;-2.840;2024-03-08T13:30:36;9.80;97.30
83729;DHT22;73707;56.480;-2.840;2024-03-08T13:33:02;9.80;97.50
83729;DHT22;73707;56.480;-2.840;2024-03-08T13:35:32;9.80;97.40
83729;DHT22;73707;56.480;-2.840;2024-03-08T13:38:00;9.80;97.20
83729;DHT22;73707;56.480;-2.840;2024-03-08T13:40:28;9.70;97.30
83729;DHT22;73707;56.480;-2.840;2024-03-08T13:42:54;9.60;97.50
83729;DHT22;73707;56.480;-2.840;2024-03-08T13:45:20;9.60;97.60
83729;DHT22;73707;56.480;-2.840;2024-03-08T13:47:50;9.60;97.90
83729;DHT22;73707;56.480;-2.840;2024-03-08T13:50:19;9.60;98.00
83729;DHT22;73707;56.480;-2.840;2024-03-08T13:52:50;9.60;98.00
83729;DHT22;73707;56.480;-2.840;2024-03-08T13:55:23;9.60;97.90
83729;DHT22;73707;56.480;-2.840;2024-03-08T13:57:49;9.60;97.60
83729;DHT22;73707;56.480;-2.840;2024-03-08T14:00:16;9.60;97.30
83729;DHT22;73707;56.480;-2.840;2024-03-08T14:02:42;9.60;97.00
83729;DHT22;73707;56.480;-2.840;2024-03-08T14:05:08;9.60;97.10
83729;DHT22;73707;56.480;-2.840;2024-03-08T14:07:35;9.70;97.30
83729;DHT22;73707;56.480;-2.840;2024-03-08T14:10:01;9.70;97.20
83729;DHT22;73707;56.480;-2.840;2024-03-08T14:12:27;9.70;97.00
83729;DHT22;73707;56.480;-2.840;2024-03-08T14:14:53;9.70;97.20
83729;DHT22;73707;56.480;-2.840;2024-03-08T14:17:19;9.70;97.10
83729;DHT22;73707;56.480;-2.840;2024-03-08T14:19:45;9.60;96.90
83729;DHT22;73707;56.480;-2.840;2024-03-08T14:22:11;9.60;96.80
83729;DHT22;73707;56.480;-2.840;2024-03-08T14:24:43;9.60;97.20
83729;DHT22;73707;56.480;-2.840;2024-03-08T14:27:10;9.60;97.10
83729;DHT22;73707;56.480;-2.840;2024-03-08T14:29:38;9.60;97.20
83729;DHT22;73707;56.480;-2.840;2024-03-08T14:32:05;9.60;96.80
83729;DHT22;73707;56.480;-2.840;2024-03-08T14:34:32;9.60;96.70
83729;DHT22;73707;56.480;-2.840;2024-03-08T14:36:59;9.60;97.00
83729;DHT22;73707;56.480;-2.840;2024-03-08T14:39:26;9.60;97.20
83729;DHT22;73707;56.480;-2.840;2024-03-08T14:41:55;9.60;97.30
83729;DHT22;73707;56.480;-2.840;2024-03-08T14:44:23;9.60;97.20
83729;DHT22;73707;56.480;-2.840;2024-03-08T14:46:57;9.60;97.00
83729;DHT22;73707;56.480;-2.840;2024-03-08T14:49:24;9.60;97.30
83729;DHT22;73707;56.480;-2.840;2024-03-08T14:51:51;9.60;97.50
83729;DHT22;73707;56.480;-2.840;2024-03-08T14:54:17;9.70;97.50
83729;DHT22;73707;56.480;-2.840;2024-03-08T14:56:48;9.70;97.40
83729;DHT22;73707;56.480;-2.840;2024-03-08T14:59:16;9.70;97.50
83729;DHT22;73707;56.480;-2.840;2024-03-08T15:01:42;9.70;97.30
83729;DHT22;73707;56.480;-2.840;2024-03-08T15:04:09;9.70;97.30
83729;DHT22;73707;56.480;-2.840;2024-03-08T15:06:38;9.80;97.20
83729;DHT22;73707;56.480;-2.840;2024-03-08T15:09:05;9.70;97.20
83729;DHT22;73707;56.480;-2.840;2024-03-08T15:11:40;9.70;97.20
83729;DHT22;73707;56.480;-2.840;2024-03-08T15:14:07;9.60;97.10
83729;DHT22;73707;56.480;-2.840;2024-03-08T15:16:37;9.50;97.30
83729;DHT22;73707;56.480;-2.840;2024-03-08T15:19:05;9.50;97.20
83729;DHT22;73707;56.480;-2.840;2024-03-08T15:21:31;9.50;97.30
83729;DHT22;73707;56.480;-2.840;2024-03-08T15:23:57;9.50;97.20
83729;DHT22;73707;56.480;-2.840;2024-03-08T15:26:22;9.50;97.10
83729;DHT22;73707;56.480;-2.840;2024-03-08T15:28:48;9.50;96.90
83729;DHT22;73707;56.480;-2.840;2024-03-08T15:31:17;9.50;96.80
83729;DHT22;73707;56.480;-2.840;2024-03-08T15:33:45;9.40;97.00
83729;DHT22;73707;56.480;-2.840;2024-03-08T15:36:14;9.50;97.20
83729;DHT22;73707;56.480;-2.840;2024-03-08T15:38:42;9.50;97.00
83729;DHT22;73707;56.480;-2.840;2024-03-08T15:41:12;9.50;96.70
83729;DHT22;73707;56.480;-2.840;2024-03-08T15:43:41;9.40;96.70